<?xml version='1.0' encoding='UTF-8'?>
<gpx xmlns="http://www.topografix.com/GPX/1/1" creator="www.balnam.be" version="1.1" xmlns:xsi="http://www.w3.org/2001/XMLSchema-instance" xsi:schemaLocation="http://www.topografix.com/GPX/1/1 http://www.topografix.com/GPX/1/1/gpx.xsd">
<trk>
<name>lgehg10</name>
<cmt>v</cmt>
<desc>Hollogne-sur-Geer Chemin n°10 </desc>
<link href="https://chemins.be/hollognesurgeer/chemin/10"/><trkseg>
<trkpt lat="50.694307" lon="5.193572"><time>2026-05-02T20:17:43Z</time></trkpt>
<trkpt lat="50.693719" lon="5.191529"><time>2026-05-02T20:27:43Z</time></trkpt>
</trkseg></trk>
<trk>
<name>lgehg10</name>
<cmt>s</cmt>
<desc>Hollogne-sur-Geer Chemin n°10 </desc>
<link href="https://chemins.be/hollognesurgeer/chemin/10"/><trkseg>
<trkpt lat="50.693719" lon="5.191529"><time>2026-05-02T20:27:43Z</time></trkpt>
<trkpt lat="50.692991" lon="5.188628"><time>2026-05-02T20:37:43Z</time></trkpt>
<trkpt lat="50.690980" lon="5.185566"><time>2026-05-02T20:47:43Z</time></trkpt>
<trkpt lat="50.690858" lon="5.184983"><time>2026-05-02T20:57:43Z</time></trkpt>
</trkseg>
</trk>
<trk>
<name>lgehg11</name>
<cmt>q</cmt>
<desc>Hollogne-sur-Geer Chemin n°11 </desc>
<link href="https://chemins.be/hollognesurgeer/chemin/11"/><trkseg>
<trkpt lat="50.684888" lon="5.195219"><time>2026-05-02T20:17:43Z</time></trkpt>
<trkpt lat="50.684344" lon="5.197021"><time>2026-05-02T20:27:43Z</time></trkpt>
<trkpt lat="50.683402" lon="5.198668"><time>2026-05-02T20:37:43Z</time></trkpt>
<trkpt lat="50.683069" lon="5.200025"><time>2026-05-02T20:47:43Z</time></trkpt>
</trkseg>
</trk>
<trk>
<name>lgehg14</name>
<cmt>s</cmt>
<desc>Hollogne-sur-Geer Chemin n°14 </desc>
<link href="https://chemins.be/hollognesurgeer/chemin/14"/><trkseg>
<trkpt lat="50.671611" lon="5.215146"><time>2026-05-02T20:17:43Z</time></trkpt>
<trkpt lat="50.672962" lon="5.217556"><time>2026-05-02T20:27:43Z</time></trkpt>
<trkpt lat="50.673986" lon="5.218050"><time>2026-05-02T20:37:43Z</time></trkpt>
<trkpt lat="50.674612" lon="5.219194"><time>2026-05-02T20:47:43Z</time></trkpt>
</trkseg>
</trk>
<trk>
<name>lgehg15</name>
<cmt>q</cmt>
<desc>Hollogne-sur-Geer Sentier n°15 </desc>
<link href="https://chemins.be/hollognesurgeer/sentier/15"/><trkseg>
<trkpt lat="50.658052" lon="5.209365"><time>2026-05-02T20:17:43Z</time></trkpt>
<trkpt lat="50.657834" lon="5.206940"><time>2026-05-02T20:27:43Z</time></trkpt>
</trkseg>
</trk>
<trk>
<name>lgehg16</name>
<cmt>q</cmt>
<desc>Hollogne-sur-Geer Chemin n°16 </desc>
<link href="https://chemins.be/hollognesurgeer/chemin/16"/><trkseg>
<trkpt lat="50.667002" lon="5.210159"><time>2026-05-02T20:17:43Z</time></trkpt>
<trkpt lat="50.663057" lon="5.209386"><time>2026-05-02T20:27:43Z</time></trkpt>
<trkpt lat="50.658977" lon="5.210180"><time>2026-05-02T20:37:43Z</time></trkpt>
</trkseg>
</trk>
<trk>
<name>lgehg17</name>
<cmt>q</cmt>
<desc>Hollogne-sur-Geer Chemin n°17 </desc>
<link href="https://chemins.be/hollognesurgeer/chemin/17"/><trkseg>
<trkpt lat="50.673493" lon="5.212768"><time>2026-05-02T20:17:43Z</time></trkpt>
<trkpt lat="50.673402" lon="5.212353"><time>2026-05-02T20:27:43Z</time></trkpt>
<trkpt lat="50.672260" lon="5.211738"><time>2026-05-02T20:37:43Z</time></trkpt>
<trkpt lat="50.671544" lon="5.212889"><time>2026-05-02T20:47:43Z</time></trkpt>
</trkseg>
</trk>
<trk>
<name>lgehg18</name>
<cmt>q</cmt>
<desc>Hollogne-sur-Geer Chemin n°18 </desc>
<link href="https://chemins.be/hollognesurgeer/chemin/18"/><trkseg>
<trkpt lat="50.674826" lon="5.201941"><time>2026-05-02T20:17:43Z</time></trkpt>
<trkpt lat="50.675495" lon="5.205213"><time>2026-05-02T20:27:43Z</time></trkpt>
<trkpt lat="50.675413" lon="5.205524"><time>2026-05-02T20:37:43Z</time></trkpt>
<trkpt lat="50.675527" lon="5.206153"><time>2026-05-02T20:47:43Z</time></trkpt>
<trkpt lat="50.675277" lon="5.208442"><time>2026-05-02T20:57:43Z</time></trkpt>
<trkpt lat="50.675409" lon="5.209708"><time>2026-05-02T21:07:43Z</time></trkpt>
<trkpt lat="50.675654" lon="5.210541"><time>2026-05-02T21:17:43Z</time></trkpt>
</trkseg>
</trk>
<trk>
<name>lgehg2</name>
<cmt>s</cmt>
<desc>Hollogne-sur-Geer Chemin n°2 Rue de Celles</desc>
<link href="https://chemins.be/hollognesurgeer/chemin/2"/><trkseg>
<trkpt lat="50.683778" lon="5.185942"><time>2026-05-02T20:17:43Z</time></trkpt>
<trkpt lat="50.682321" lon="5.190021"><time>2026-05-02T20:27:43Z</time></trkpt>
<trkpt lat="50.681532" lon="5.191939"><time>2026-05-02T20:37:43Z</time></trkpt>
</trkseg></trk>
<trk>
<name>lgehg2</name>
<cmt>r</cmt>
<desc>Hollogne-sur-Geer Chemin n°2 Rue de Celles</desc>
<link href="https://chemins.be/hollognesurgeer/chemin/2"/><trkseg>
<trkpt lat="50.681532" lon="5.191939"><time>2026-05-02T20:37:43Z</time></trkpt>
<trkpt lat="50.680349" lon="5.193341"><time>2026-05-02T20:47:43Z</time></trkpt>
<trkpt lat="50.677652" lon="5.200008"><time>2026-05-02T20:57:43Z</time></trkpt>
<trkpt lat="50.676633" lon="5.203963"><time>2026-05-02T21:07:43Z</time></trkpt>
<trkpt lat="50.676864" lon="5.204900"><time>2026-05-02T21:17:43Z</time></trkpt>
<trkpt lat="50.676469" lon="5.205844"><time>2026-05-02T21:27:43Z</time></trkpt>
<trkpt lat="50.676692" lon="5.208755"><time>2026-05-02T21:37:43Z</time></trkpt>
<trkpt lat="50.676528" lon="5.209914"><time>2026-05-02T21:47:43Z</time></trkpt>
<trkpt lat="50.672290" lon="5.214077"><time>2026-05-02T21:57:43Z</time></trkpt>
<trkpt lat="50.671588" lon="5.215207"><time>2026-05-02T22:07:43Z</time></trkpt>
<trkpt lat="50.668060" lon="5.222429"><time>2026-05-02T22:17:43Z</time></trkpt>
</trkseg></trk>
<trk>
<name>lgehg2</name>
<cmt>q</cmt>
<desc>Hollogne-sur-Geer Chemin n°2 Rue de Celles</desc>
<link href="https://chemins.be/hollognesurgeer/chemin/2"/><trkseg>
<trkpt lat="50.668060" lon="5.222429"><time>2026-05-02T22:17:43Z</time></trkpt>
<trkpt lat="50.667861" lon="5.222905"><time>2026-05-02T22:27:43Z</time></trkpt>
</trkseg></trk>
<trk>
<name>lgehg2</name>
<cmt>s</cmt>
<desc>Hollogne-sur-Geer Chemin n°2 Rue de Celles</desc>
<link href="https://chemins.be/hollognesurgeer/chemin/2"/><trkseg>
<trkpt lat="50.667861" lon="5.222905"><time>2026-05-02T22:27:43Z</time></trkpt>
<trkpt lat="50.667238" lon="5.224392"><time>2026-05-02T22:37:43Z</time></trkpt>
</trkseg>
</trk>
<trk>
<name>lgehg20</name>
<cmt>q</cmt>
<desc>Hollogne-sur-Geer Sentier n°20 </desc>
<link href="https://chemins.be/hollognesurgeer/sentier/20"/><trkseg>
<trkpt lat="50.667415" lon="5.210517"><time>2026-05-02T20:17:43Z</time></trkpt>
<trkpt lat="50.668081" lon="5.209128"><time>2026-05-02T20:27:43Z</time></trkpt>
<trkpt lat="50.668364" lon="5.208624"><time>2026-05-02T20:37:43Z</time></trkpt>
<trkpt lat="50.668720" lon="5.207782"><time>2026-05-02T20:47:43Z</time></trkpt>
<trkpt lat="50.668906" lon="5.207205"><time>2026-05-02T20:57:43Z</time></trkpt>
</trkseg></trk>
<trk>
<name>lgehg20</name>
<cmt>v</cmt>
<desc>Hollogne-sur-Geer Sentier n°20 </desc>
<link href="https://chemins.be/hollognesurgeer/sentier/20"/><trkseg>
<trkpt lat="50.668906" lon="5.207205"><time>2026-05-02T20:57:43Z</time></trkpt>
<trkpt lat="50.669239" lon="5.206051"><time>2026-05-02T21:07:43Z</time></trkpt>
</trkseg>
</trk>
<trk>
<name>lgehg23</name>
<cmt>q</cmt>
<desc>Hollogne-sur-Geer Sentier n°23 </desc>
<link href="https://chemins.be/hollognesurgeer/sentier/23"/><trkseg>
<trkpt lat="50.694099" lon="5.190997"><time>2026-05-02T20:17:43Z</time></trkpt>
<trkpt lat="50.693618" lon="5.191083"><time>2026-05-02T20:27:43Z</time></trkpt>
<trkpt lat="50.690021" lon="5.193973"><time>2026-05-02T20:37:43Z</time></trkpt>
<trkpt lat="50.688937" lon="5.195342"><time>2026-05-02T20:47:43Z</time></trkpt>
<trkpt lat="50.685437" lon="5.198132"><time>2026-05-02T20:57:43Z</time></trkpt>
</trkseg></trk>
<trk>
<name>lgehg23</name>
<cmt>v</cmt>
<desc>Hollogne-sur-Geer Sentier n°23 </desc>
<link href="https://chemins.be/hollognesurgeer/sentier/23"/><trkseg>
<trkpt lat="50.685437" lon="5.198132"><time>2026-05-02T20:57:43Z</time></trkpt>
<trkpt lat="50.683941" lon="5.199044"><time>2026-05-02T21:07:43Z</time></trkpt>
<trkpt lat="50.683608" lon="5.198700"><time>2026-05-02T21:17:43Z</time></trkpt>
<trkpt lat="50.682928" lon="5.199151"><time>2026-05-02T21:27:43Z</time></trkpt>
</trkseg>
</trk>
<trk>
<name>lgehg24</name>
<cmt>q</cmt>
<desc>Hollogne-sur-Geer Sentier n°24 </desc>
<link href="https://chemins.be/hollognesurgeer/sentier/24"/><trkseg>
<trkpt lat="50.674192" lon="5.199008"><time>2026-05-02T20:17:43Z</time></trkpt>
<trkpt lat="50.675923" lon="5.197377"><time>2026-05-02T20:27:43Z</time></trkpt>
<trkpt lat="50.676805" lon="5.197839"><time>2026-05-02T20:37:43Z</time></trkpt>
<trkpt lat="50.676986" lon="5.197949"><time>2026-05-02T20:47:43Z</time></trkpt>
<trkpt lat="50.677290" lon="5.197678"><time>2026-05-02T20:57:43Z</time></trkpt>
<trkpt lat="50.677777" lon="5.199727"><time>2026-05-02T21:07:43Z</time></trkpt>
<trkpt lat="50.678427" lon="5.201451"><time>2026-05-02T21:17:43Z</time></trkpt>
<trkpt lat="50.679098" lon="5.203596"><time>2026-05-02T21:27:43Z</time></trkpt>
<trkpt lat="50.679806" lon="5.206405"><time>2026-05-02T21:37:43Z</time></trkpt>
</trkseg>
</trk>
<trk>
<name>lgehg25</name>
<cmt>q</cmt>
<desc>Hollogne-sur-Geer Sentier n°25 </desc>
<link href="https://chemins.be/hollognesurgeer/sentier/25"/><trkseg>
<trkpt lat="50.678157" lon="5.204278"><time>2026-05-02T20:17:43Z</time></trkpt>
<trkpt lat="50.678855" lon="5.206245"><time>2026-05-02T20:27:43Z</time></trkpt>
<trkpt lat="50.678660" lon="5.208068"><time>2026-05-02T20:37:43Z</time></trkpt>
<trkpt lat="50.678243" lon="5.209163"><time>2026-05-02T20:47:43Z</time></trkpt>
<trkpt lat="50.678768" lon="5.211048"><time>2026-05-02T20:57:43Z</time></trkpt>
</trkseg></trk>
<trk>
<name>lgehg25</name>
<cmt>v</cmt>
<desc>Hollogne-sur-Geer Sentier n°25 </desc>
<link href="https://chemins.be/hollognesurgeer/sentier/25"/><trkseg>
<trkpt lat="50.678768" lon="5.211048"><time>2026-05-02T20:57:43Z</time></trkpt>
<trkpt lat="50.678963" lon="5.212914"><time>2026-05-02T21:07:43Z</time></trkpt>
</trkseg></trk>
<trk>
<name>lgehg25</name>
<cmt>q</cmt>
<desc>Hollogne-sur-Geer Sentier n°25 </desc>
<link href="https://chemins.be/hollognesurgeer/sentier/25"/><trkseg>
<trkpt lat="50.678963" lon="5.212914"><time>2026-05-02T21:07:43Z</time></trkpt>
<trkpt lat="50.679363" lon="5.215972"><time>2026-05-02T21:17:43Z</time></trkpt>
<trkpt lat="50.679467" lon="5.216373"><time>2026-05-02T21:27:43Z</time></trkpt>
<trkpt lat="50.680015" lon="5.217767"><time>2026-05-02T21:37:43Z</time></trkpt>
</trkseg>
</trk>
<trk>
<name>lgehg26</name>
<cmt>q</cmt>
<desc>Hollogne-sur-Geer Sentier n°26 </desc>
<link href="https://chemins.be/hollognesurgeer/sentier/26"/><trkseg>
<trkpt lat="50.678724" lon="5.205765"><time>2026-05-02T20:17:43Z</time></trkpt>
<trkpt lat="50.679820" lon="5.206459"><time>2026-05-02T20:27:43Z</time></trkpt>
<trkpt lat="50.680972" lon="5.207525"><time>2026-05-02T20:37:43Z</time></trkpt>
<trkpt lat="50.682041" lon="5.209714"><time>2026-05-02T20:47:43Z</time></trkpt>
<trkpt lat="50.682463" lon="5.212331"><time>2026-05-02T20:57:43Z</time></trkpt>
</trkseg>
</trk>
<trk>
<name>lgehg27</name>
<cmt>q</cmt>
<desc>Hollogne-sur-Geer Sentier n°27 </desc>
<link href="https://chemins.be/hollognesurgeer/sentier/27"/><trkseg>
<trkpt lat="50.676558" lon="5.207522"><time>2026-05-02T20:17:43Z</time></trkpt>
<trkpt lat="50.675137" lon="5.208541"><time>2026-05-02T20:27:43Z</time></trkpt>
<trkpt lat="50.675198" lon="5.209203"><time>2026-05-02T20:37:43Z</time></trkpt>
<trkpt lat="50.675112" lon="5.209314"><time>2026-05-02T20:47:43Z</time></trkpt>
<trkpt lat="50.674691" lon="5.208817"><time>2026-05-02T20:57:43Z</time></trkpt>
<trkpt lat="50.674267" lon="5.208913"><time>2026-05-02T21:07:43Z</time></trkpt>
<trkpt lat="50.673211" lon="5.209686"><time>2026-05-02T21:17:43Z</time></trkpt>
<trkpt lat="50.672368" lon="5.211710"><time>2026-05-02T21:27:43Z</time></trkpt>
</trkseg>
</trk>
<trk>
<name>lgehg28</name>
<cmt>r</cmt>
<desc>Hollogne-sur-Geer Sentier n°28 </desc>
<link href="https://chemins.be/hollognesurgeer/sentier/28"/><trkseg>
<trkpt lat="50.676764" lon="5.204991"><time>2026-05-02T20:17:43Z</time></trkpt>
<trkpt lat="50.676275" lon="5.204995"><time>2026-05-02T20:27:43Z</time></trkpt>
</trkseg></trk>
<trk>
<name>lgehg28</name>
<cmt>q</cmt>
<desc>Hollogne-sur-Geer Sentier n°28 </desc>
<link href="https://chemins.be/hollognesurgeer/sentier/28"/><trkseg>
<trkpt lat="50.676275" lon="5.204995"><time>2026-05-02T20:27:43Z</time></trkpt>
<trkpt lat="50.675428" lon="5.205531"><time>2026-05-02T20:37:43Z</time></trkpt>
</trkseg>
</trk>
<trk>
<name>lgehg29</name>
<cmt>q</cmt>
<desc>Hollogne-sur-Geer Sentier n°29 </desc>
<link href="https://chemins.be/hollognesurgeer/sentier/29"/><trkseg>
<trkpt lat="50.675718" lon="5.200818"><time>2026-05-02T20:17:43Z</time></trkpt>
<trkpt lat="50.675668" lon="5.202055"><time>2026-05-02T20:27:43Z</time></trkpt>
<trkpt lat="50.676012" lon="5.203514"><time>2026-05-02T20:37:43Z</time></trkpt>
<trkpt lat="50.675514" lon="5.205266"><time>2026-05-02T20:47:43Z</time></trkpt>
</trkseg>
</trk>
<trk>
<name>lgehg3</name>
<cmt>v</cmt>
<desc>Hollogne-sur-Geer Chemin n°3 </desc>
<link href="https://chemins.be/hollognesurgeer/chemin/3"/><trkseg>
<trkpt lat="50.688213" lon="5.209386"><time>2026-05-02T20:17:43Z</time></trkpt>
<trkpt lat="50.685417" lon="5.198167"><time>2026-05-02T20:27:43Z</time></trkpt>
</trkseg></trk>
<trk>
<name>lgehg3</name>
<cmt>q</cmt>
<desc>Hollogne-sur-Geer Chemin n°3 </desc>
<link href="https://chemins.be/hollognesurgeer/chemin/3"/><trkseg>
<trkpt lat="50.685417" lon="5.198167"><time>2026-05-02T20:27:43Z</time></trkpt>
<trkpt lat="50.684913" lon="5.196426"><time>2026-05-02T20:37:43Z</time></trkpt>
<trkpt lat="50.684913" lon="5.195171"><time>2026-05-02T20:47:43Z</time></trkpt>
<trkpt lat="50.685104" lon="5.193186"><time>2026-05-02T20:57:43Z</time></trkpt>
<trkpt lat="50.684213" lon="5.189012"><time>2026-05-02T21:07:43Z</time></trkpt>
</trkseg>
</trk>
<trk>
<name>lgehg31</name>
<cmt>s</cmt>
<desc>Hollogne-sur-Geer Sentier n°31 </desc>
<link href="https://chemins.be/hollognesurgeer/sentier/31"/><trkseg>
<trkpt lat="50.675524" lon="5.218252"><time>2026-05-02T20:17:43Z</time></trkpt>
<trkpt lat="50.675860" lon="5.215834"><time>2026-05-02T20:27:43Z</time></trkpt>
<trkpt lat="50.675290" lon="5.212624"><time>2026-05-02T20:37:43Z</time></trkpt>
</trkseg></trk>
<trk>
<name>lgehg31</name>
<cmt>q</cmt>
<desc>Hollogne-sur-Geer Sentier n°31 </desc>
<link href="https://chemins.be/hollognesurgeer/sentier/31"/><trkseg>
<trkpt lat="50.675290" lon="5.212624"><time>2026-05-02T20:37:43Z</time></trkpt>
<trkpt lat="50.675120" lon="5.212052"><time>2026-05-02T20:47:43Z</time></trkpt>
</trkseg></trk>
<trk>
<name>lgehg31</name>
<cmt>r</cmt>
<desc>Hollogne-sur-Geer Sentier n°31 </desc>
<link href="https://chemins.be/hollognesurgeer/sentier/31"/><trkseg>
<trkpt lat="50.675120" lon="5.212052"><time>2026-05-02T20:47:43Z</time></trkpt>
<trkpt lat="50.674892" lon="5.211467"><time>2026-05-02T20:57:43Z</time></trkpt>
<trkpt lat="50.674756" lon="5.211540"><time>2026-05-02T21:07:43Z</time></trkpt>
<trkpt lat="50.674250" lon="5.210929"><time>2026-05-02T21:17:43Z</time></trkpt>
</trkseg></trk>
<trk>
<name>lgehg31</name>
<cmt>v</cmt>
<desc>Hollogne-sur-Geer Sentier n°31 </desc>
<link href="https://chemins.be/hollognesurgeer/sentier/31"/><trkseg>
<trkpt lat="50.674250" lon="5.210929"><time>2026-05-02T21:17:43Z</time></trkpt>
<trkpt lat="50.672339" lon="5.208689"><time>2026-05-02T21:27:43Z</time></trkpt>
<trkpt lat="50.671880" lon="5.207347"><time>2026-05-02T21:37:43Z</time></trkpt>
<trkpt lat="50.671524" lon="5.206762"><time>2026-05-02T21:47:43Z</time></trkpt>
</trkseg>
</trk>
<trk>
<name>lgehg32</name>
<cmt>q</cmt>
<desc>Hollogne-sur-Geer Sentier n°32 </desc>
<link href="https://chemins.be/hollognesurgeer/sentier/32"/><trkseg>
<trkpt lat="50.673798" lon="5.213681"><time>2026-05-02T20:17:43Z</time></trkpt>
<trkpt lat="50.674301" lon="5.213108"><time>2026-05-02T20:27:43Z</time></trkpt>
<trkpt lat="50.674151" lon="5.212679"><time>2026-05-02T20:37:43Z</time></trkpt>
<trkpt lat="50.674553" lon="5.212132"><time>2026-05-02T20:47:43Z</time></trkpt>
<trkpt lat="50.674718" lon="5.211692"><time>2026-05-02T20:57:43Z</time></trkpt>
</trkseg>
</trk>
<trk>
<name>lgehg33</name>
<cmt>v</cmt>
<desc>Hollogne-sur-Geer Sentier n°33 </desc>
<link href="https://chemins.be/hollognesurgeer/sentier/33"/><trkseg>
<trkpt lat="50.673800" lon="5.213648"><time>2026-05-02T20:17:43Z</time></trkpt>
<trkpt lat="50.673578" lon="5.213787"><time>2026-05-02T20:27:43Z</time></trkpt>
</trkseg></trk>
<trk>
<name>lgehg33</name>
<cmt>q</cmt>
<desc>Hollogne-sur-Geer Sentier n°33 </desc>
<link href="https://chemins.be/hollognesurgeer/sentier/33"/><trkseg>
<trkpt lat="50.673578" lon="5.213787"><time>2026-05-02T20:27:43Z</time></trkpt>
<trkpt lat="50.673295" lon="5.213956"><time>2026-05-02T20:37:43Z</time></trkpt>
<trkpt lat="50.672894" lon="5.213838"><time>2026-05-02T20:47:43Z</time></trkpt>
<trkpt lat="50.672780" lon="5.213659"><time>2026-05-02T20:57:43Z</time></trkpt>
</trkseg>
</trk>
<trk>
<name>lgehg34</name>
<cmt>s</cmt>
<desc>Hollogne-sur-Geer Sentier n°34 </desc>
<link href="https://chemins.be/hollognesurgeer/sentier/34"/><trkseg>
<trkpt lat="50.673983" lon="5.219325"><time>2026-05-02T20:17:43Z</time></trkpt>
<trkpt lat="50.672877" lon="5.217894"><time>2026-05-02T20:27:43Z</time></trkpt>
<trkpt lat="50.672070" lon="5.216335"><time>2026-05-02T20:37:43Z</time></trkpt>
<trkpt lat="50.671617" lon="5.215191"><time>2026-05-02T20:47:43Z</time></trkpt>
</trkseg></trk>
<trk>
<name>lgehg34</name>
<cmt>q</cmt>
<desc>Hollogne-sur-Geer Sentier n°34 </desc>
<link href="https://chemins.be/hollognesurgeer/sentier/34"/><trkseg>
<trkpt lat="50.671617" lon="5.215191"><time>2026-05-02T20:47:43Z</time></trkpt>
<trkpt lat="50.670157" lon="5.212712"><time>2026-05-02T20:57:43Z</time></trkpt>
<trkpt lat="50.667668" lon="5.210856"><time>2026-05-02T21:07:43Z</time></trkpt>
</trkseg>
</trk>
<trk>
<name>lgehg35</name>
<cmt>q</cmt>
<desc>Hollogne-sur-Geer Sentier n°35 </desc>
<link href="https://chemins.be/hollognesurgeer/sentier/35"/><trkseg>
<trkpt lat="50.671140" lon="5.187462"><time>2026-05-02T20:17:43Z</time></trkpt>
<trkpt lat="50.672042" lon="5.189114"><time>2026-05-02T20:27:43Z</time></trkpt>
<trkpt lat="50.671988" lon="5.189450"><time>2026-05-02T20:37:43Z</time></trkpt>
<trkpt lat="50.673108" lon="5.191453"><time>2026-05-02T20:47:43Z</time></trkpt>
<trkpt lat="50.673312" lon="5.191274"><time>2026-05-02T20:57:43Z</time></trkpt>
<trkpt lat="50.673883" lon="5.191603"><time>2026-05-02T21:07:43Z</time></trkpt>
<trkpt lat="50.674492" lon="5.192481"><time>2026-05-02T21:17:43Z</time></trkpt>
<trkpt lat="50.674866" lon="5.193019"><time>2026-05-02T21:27:43Z</time></trkpt>
</trkseg>
</trk>
<trk>
<name>lgehg36</name>
<cmt>r</cmt>
<desc>Hollogne-sur-Geer Sentier n°36 Rue de la Mulle</desc>
<link href="https://chemins.be/hollognesurgeer/sentier/36"/><trkseg>
<trkpt lat="50.690601" lon="5.195603"><time>2026-05-02T20:17:43Z</time></trkpt>
<trkpt lat="50.689957" lon="5.193887"><time>2026-05-02T20:27:43Z</time></trkpt>
</trkseg></trk>
<trk>
<name>lgehg36</name>
<cmt>q</cmt>
<desc>Hollogne-sur-Geer Sentier n°36 Rue de la Mulle</desc>
<link href="https://chemins.be/hollognesurgeer/sentier/36"/><trkseg>
<trkpt lat="50.689957" lon="5.193887"><time>2026-05-02T20:27:43Z</time></trkpt>
<trkpt lat="50.688389" lon="5.191355"><time>2026-05-02T20:37:43Z</time></trkpt>
<trkpt lat="50.686642" lon="5.187371"><time>2026-05-02T20:47:43Z</time></trkpt>
<trkpt lat="50.686028" lon="5.186406"><time>2026-05-02T20:57:43Z</time></trkpt>
<trkpt lat="50.685868" lon="5.186474"><time>2026-05-02T21:07:43Z</time></trkpt>
</trkseg>
</trk>
<trk>
<name>lgehg37</name>
<cmt>q</cmt>
<desc>Hollogne-sur-Geer Sentier n°37 </desc>
<link href="https://chemins.be/hollognesurgeer/sentier/37"/><trkseg>
<trkpt lat="50.677029" lon="5.205093"><time>2026-05-02T20:17:43Z</time></trkpt>
<trkpt lat="50.677260" lon="5.206044"><time>2026-05-02T20:27:43Z</time></trkpt>
<trkpt lat="50.677767" lon="5.206917"><time>2026-05-02T20:37:43Z</time></trkpt>
<trkpt lat="50.678266" lon="5.209098"><time>2026-05-02T20:47:43Z</time></trkpt>
</trkseg>
</trk>
<trk>
<name>lgehg4</name>
<cmt>q</cmt>
<desc>Hollogne-sur-Geer Chemin n°4 Rue des Quinze Bonniers / Rue de Rosoux</desc>
<link href="https://chemins.be/hollognesurgeer/chemin/4"/><trkseg>
<trkpt lat="50.676256" lon="5.198797"><time>2026-05-02T20:17:43Z</time></trkpt>
<trkpt lat="50.676517" lon="5.198501"><time>2026-05-02T20:27:43Z</time></trkpt>
</trkseg></trk>
<trk>
<name>lgehg4</name>
<cmt>v</cmt>
<desc>Hollogne-sur-Geer Chemin n°4 Rue des Quinze Bonniers / Rue de Rosoux</desc>
<link href="https://chemins.be/hollognesurgeer/chemin/4"/><trkseg>
<trkpt lat="50.676517" lon="5.198501"><time>2026-05-02T20:27:43Z</time></trkpt>
<trkpt lat="50.676585" lon="5.198443"><time>2026-05-02T20:37:43Z</time></trkpt>
<trkpt lat="50.676806" lon="5.197848"><time>2026-05-02T20:47:43Z</time></trkpt>
</trkseg></trk>
<trk>
<name>lgehg4</name>
<cmt>d</cmt>
<desc>Hollogne-sur-Geer Chemin n°4 Rue des Quinze Bonniers / Rue de Rosoux</desc>
<link href="https://chemins.be/hollognesurgeer/chemin/4"/><trkseg>
<trkpt lat="50.676806" lon="5.197848"><time>2026-05-02T20:47:43Z</time></trkpt>
<trkpt lat="50.677161" lon="5.196891"><time>2026-05-02T20:57:43Z</time></trkpt>
</trkseg></trk>
<trk>
<name>lgehg4</name>
<cmt>q</cmt>
<desc>Hollogne-sur-Geer Chemin n°4 Rue des Quinze Bonniers / Rue de Rosoux</desc>
<link href="https://chemins.be/hollognesurgeer/chemin/4"/><trkseg>
<trkpt lat="50.677161" lon="5.196891"><time>2026-05-02T20:57:43Z</time></trkpt>
<trkpt lat="50.677685" lon="5.196440"><time>2026-05-02T21:07:43Z</time></trkpt>
<trkpt lat="50.677900" lon="5.196073"><time>2026-05-02T21:17:43Z</time></trkpt>
<trkpt lat="50.677907" lon="5.196063"><time>2026-05-02T21:27:43Z</time></trkpt>
<trkpt lat="50.678501" lon="5.195053"><time>2026-05-02T21:37:43Z</time></trkpt>
<trkpt lat="50.680404" lon="5.193272"><time>2026-05-02T21:47:43Z</time></trkpt>
</trkseg></trk>
<trk>
<name>lgehg4</name>
<cmt>r</cmt>
<desc>Hollogne-sur-Geer Chemin n°4 Rue des Quinze Bonniers / Rue de Rosoux</desc>
<link href="https://chemins.be/hollognesurgeer/chemin/4"/><trkseg>
<trkpt lat="50.680404" lon="5.193272"><time>2026-05-02T21:47:43Z</time></trkpt>
<trkpt lat="50.681564" lon="5.191812"><time>2026-05-02T21:57:43Z</time></trkpt>
</trkseg></trk>
<trk>
<name>lgehg4</name>
<cmt>s</cmt>
<desc>Hollogne-sur-Geer Chemin n°4 Rue des Quinze Bonniers / Rue de Rosoux</desc>
<link href="https://chemins.be/hollognesurgeer/chemin/4"/><trkseg>
<trkpt lat="50.681564" lon="5.191812"><time>2026-05-02T21:57:43Z</time></trkpt>
<trkpt lat="50.682362" lon="5.190010"><time>2026-05-02T22:07:43Z</time></trkpt>
</trkseg></trk>
<trk>
<name>lgehg4</name>
<cmt>r</cmt>
<desc>Hollogne-sur-Geer Chemin n°4 Rue des Quinze Bonniers / Rue de Rosoux</desc>
<link href="https://chemins.be/hollognesurgeer/chemin/4"/><trkseg>
<trkpt lat="50.682362" lon="5.190010"><time>2026-05-02T22:07:43Z</time></trkpt>
<trkpt lat="50.686821" lon="5.187235"><time>2026-05-02T22:17:43Z</time></trkpt>
</trkseg></trk>
<trk>
<name>lgehg4</name>
<cmt>s</cmt>
<desc>Hollogne-sur-Geer Chemin n°4 Rue des Quinze Bonniers / Rue de Rosoux</desc>
<link href="https://chemins.be/hollognesurgeer/chemin/4"/><trkseg>
<trkpt lat="50.686821" lon="5.187235"><time>2026-05-02T22:17:43Z</time></trkpt>
<trkpt lat="50.687183" lon="5.186033"><time>2026-05-02T22:27:43Z</time></trkpt>
<trkpt lat="50.690102" lon="5.181999"><time>2026-05-02T22:37:43Z</time></trkpt>
</trkseg>
</trk>
<trk>
<name>lgehg5</name>
<cmt>d</cmt>
<desc>Hollogne-sur-Geer Chemin n°5 </desc>
<link href="https://chemins.be/hollognesurgeer/chemin/5"/><trkseg>
<trkpt lat="50.677156" lon="5.196719"><time>2026-05-02T20:17:43Z</time></trkpt>
<trkpt lat="50.677430" lon="5.195389"><time>2026-05-02T20:27:43Z</time></trkpt>
</trkseg></trk>
<trk>
<name>lgehg5</name>
<cmt>s</cmt>
<desc>Hollogne-sur-Geer Chemin n°5 </desc>
<link href="https://chemins.be/hollognesurgeer/chemin/5"/><trkseg>
<trkpt lat="50.677430" lon="5.195389"><time>2026-05-02T20:27:43Z</time></trkpt>
<trkpt lat="50.677489" lon="5.194914"><time>2026-05-02T20:37:43Z</time></trkpt>
<trkpt lat="50.677917" lon="5.191455"><time>2026-05-02T20:47:43Z</time></trkpt>
<trkpt lat="50.677799" lon="5.188565"><time>2026-05-02T20:57:43Z</time></trkpt>
<trkpt lat="50.678826" lon="5.185575"><time>2026-05-02T21:07:43Z</time></trkpt>
<trkpt lat="50.681960" lon="5.178337"><time>2026-05-02T21:17:43Z</time></trkpt>
</trkseg>
</trk>
<trk>
<name>lgehg6</name>
<cmt>s</cmt>
<desc>Hollogne-sur-Geer Chemin n°6 </desc>
<link href="https://chemins.be/hollognesurgeer/chemin/6"/><trkseg>
<trkpt lat="50.674899" lon="5.192498"><time>2026-05-02T20:17:43Z</time></trkpt>
<trkpt lat="50.675149" lon="5.190785"><time>2026-05-02T20:27:43Z</time></trkpt>
<trkpt lat="50.674958" lon="5.189215"><time>2026-05-02T20:37:43Z</time></trkpt>
<trkpt lat="50.674369" lon="5.188371"><time>2026-05-02T20:47:43Z</time></trkpt>
</trkseg>
</trk>
<trk>
<name>lgehg9</name>
<cmt>s</cmt>
<desc>Hollogne-sur-Geer Chemin n°9 </desc>
<link href="https://chemins.be/hollognesurgeer/chemin/9"/><trkseg>
<trkpt lat="50.690730" lon="5.184862"><time>2026-05-02T20:17:43Z</time></trkpt>
<trkpt lat="50.690172" lon="5.184790"><time>2026-05-02T20:27:43Z</time></trkpt>
<trkpt lat="50.688876" lon="5.183632"><time>2026-05-02T20:37:43Z</time></trkpt>
</trkseg>
</trk>
<trk>
<name>lgehgi1</name>
<cmt>v</cmt>
<desc>Hollogne-sur-Geer Sentier n°i1 promenade du Geer</desc>
<link href="https://chemins.be/hollognesurgeer/sentier/i1"/><trkseg>
<trkpt lat="50.672974" lon="5.199991"><time>2026-05-02T20:17:43Z</time></trkpt>
<trkpt lat="50.673104" lon="5.201797"><time>2026-05-02T20:27:43Z</time></trkpt>
<trkpt lat="50.672823" lon="5.202227"><time>2026-05-02T20:37:43Z</time></trkpt>
<trkpt lat="50.673225" lon="5.202740"><time>2026-05-02T20:47:43Z</time></trkpt>
<trkpt lat="50.673173" lon="5.203631"><time>2026-05-02T20:57:43Z</time></trkpt>
<trkpt lat="50.673340" lon="5.204270"><time>2026-05-02T21:07:43Z</time></trkpt>
<trkpt lat="50.673346" lon="5.204553"><time>2026-05-02T21:17:43Z</time></trkpt>
<trkpt lat="50.672935" lon="5.205579"><time>2026-05-02T21:27:43Z</time></trkpt>
<trkpt lat="50.671560" lon="5.206686"><time>2026-05-02T21:37:43Z</time></trkpt>
<trkpt lat="50.671433" lon="5.206868"><time>2026-05-02T21:47:43Z</time></trkpt>
</trkseg>
</trk>
<trk>
<name>lgehgi2</name>
<cmt>v</cmt>
<desc>Hollogne-sur-Geer Sentier n°i2 </desc>
<link href="https://chemins.be/hollognesurgeer/sentier/i2"/><trkseg>
<trkpt lat="50.673748" lon="5.199103"><time>2026-05-02T20:17:43Z</time></trkpt>
<trkpt lat="50.673064" lon="5.199038"><time>2026-05-02T20:27:43Z</time></trkpt>
<trkpt lat="50.672873" lon="5.197651"><time>2026-05-02T20:37:43Z</time></trkpt>
<trkpt lat="50.672048" lon="5.194833"><time>2026-05-02T20:47:43Z</time></trkpt>
<trkpt lat="50.671817" lon="5.193331"><time>2026-05-02T20:57:43Z</time></trkpt>
<trkpt lat="50.671513" lon="5.192658"><time>2026-05-02T21:07:43Z</time></trkpt>
<trkpt lat="50.671250" lon="5.191078"><time>2026-05-02T21:17:43Z</time></trkpt>
<trkpt lat="50.670554" lon="5.189528"><time>2026-05-02T21:27:43Z</time></trkpt>
<trkpt lat="50.670154" lon="5.188934"><time>2026-05-02T21:37:43Z</time></trkpt>
<trkpt lat="50.670093" lon="5.188727"><time>2026-05-02T21:47:43Z</time></trkpt>
</trkseg>
</trk>
<trk>
<name>lgehgi3</name>
<cmt>v</cmt>
<desc>Hollogne-sur-Geer Sentier n°i3 </desc>
<link href="https://chemins.be/hollognesurgeer/sentier/i3"/><trkseg>
<trkpt lat="50.672036" lon="5.208392"><time>2026-05-02T20:17:43Z</time></trkpt>
<trkpt lat="50.671918" lon="5.208422"><time>2026-05-02T20:27:43Z</time></trkpt>
<trkpt lat="50.671456" lon="5.208976"><time>2026-05-02T20:37:43Z</time></trkpt>
<trkpt lat="50.668973" lon="5.207764"><time>2026-05-02T20:47:43Z</time></trkpt>
<trkpt lat="50.668910" lon="5.207201"><time>2026-05-02T20:57:43Z</time></trkpt>
</trkseg>
</trk>
<trk>
<name>lgehgLv715</name>
<cmt>s</cmt>
<desc>Hollogne-sur-Geer Chemin n°Lv715 </desc>
<link href="https://chemins.be/hollognesurgeer/chemin/Lv715"/><trkseg>
<trkpt lat="50.669254" lon="5.205575"><time>2026-05-02T20:17:43Z</time></trkpt>
<trkpt lat="50.671986" lon="5.208365"><time>2026-05-02T20:27:43Z</time></trkpt>
</trkseg></trk>
<trk>
<name>lgehgLv715</name>
<cmt>v</cmt>
<desc>Hollogne-sur-Geer Chemin n°Lv715 </desc>
<link href="https://chemins.be/hollognesurgeer/chemin/Lv715"/><trkseg>
<trkpt lat="50.671986" lon="5.208365"><time>2026-05-02T20:27:43Z</time></trkpt>
<trkpt lat="50.672273" lon="5.208614"><time>2026-05-02T20:37:43Z</time></trkpt>
<trkpt lat="50.673724" lon="5.210345"><time>2026-05-02T20:47:43Z</time></trkpt>
</trkseg></trk>
<trk>
<name>lgehgLv715</name>
<cmt>q</cmt>
<desc>Hollogne-sur-Geer Chemin n°Lv715 </desc>
<link href="https://chemins.be/hollognesurgeer/chemin/Lv715"/><trkseg>
<trkpt lat="50.673724" lon="5.210345"><time>2026-05-02T20:47:43Z</time></trkpt>
<trkpt lat="50.674659" lon="5.210650"><time>2026-05-02T20:57:43Z</time></trkpt>
<trkpt lat="50.675084" lon="5.211234"><time>2026-05-02T21:07:43Z</time></trkpt>
</trkseg></trk>
<trk>
<name>lgehgLv715</name>
<cmt>v</cmt>
<desc>Hollogne-sur-Geer Chemin n°Lv715 </desc>
<link href="https://chemins.be/hollognesurgeer/chemin/Lv715"/><trkseg>
<trkpt lat="50.675084" lon="5.211234"><time>2026-05-02T21:07:43Z</time></trkpt>
<trkpt lat="50.675429" lon="5.212586"><time>2026-05-02T21:17:43Z</time></trkpt>
</trkseg></trk>
<trk>
<name>lgehgLv715</name>
<cmt>s</cmt>
<desc>Hollogne-sur-Geer Chemin n°Lv715 </desc>
<link href="https://chemins.be/hollognesurgeer/chemin/Lv715"/><trkseg>
<trkpt lat="50.675429" lon="5.212586"><time>2026-05-02T21:17:43Z</time></trkpt>
<trkpt lat="50.675798" lon="5.214392"><time>2026-05-02T21:27:43Z</time></trkpt>
<trkpt lat="50.676234" lon="5.218027"><time>2026-05-02T21:37:43Z</time></trkpt>
</trkseg>
</trk>
<trk>
<name>lgehgp1</name>
<cmt>r</cmt>
<desc>Hollogne-sur-Geer Chemin particulier n°p1 </desc>
<link href="https://chemins.be/hollognesurgeer/chemin/p1"/><trkseg>
<trkpt lat="50.676021" lon="5.210402"><time>2026-05-02T20:17:43Z</time></trkpt>
<trkpt lat="50.676272" lon="5.210999"><time>2026-05-02T20:27:43Z</time></trkpt>
</trkseg></trk>
<trk>
<name>lgehgp1</name>
<cmt>q</cmt>
<desc>Hollogne-sur-Geer Chemin particulier n°p1 </desc>
<link href="https://chemins.be/hollognesurgeer/chemin/p1"/><trkseg>
<trkpt lat="50.676272" lon="5.210999"><time>2026-05-02T20:27:43Z</time></trkpt>
<trkpt lat="50.676571" lon="5.212136"><time>2026-05-02T20:37:43Z</time></trkpt>
</trkseg>
</trk>
</gpx>